LFML 261600Z AUTO 33024KT 9999 FEW014 16/M00 Q1017 BECMG 32010KT

ElémentsDécodage
LFML Station météo située sur l'aérodrome de MARSEILLE PROVENCE
261600Z émis le 26 du mois à 16h00 UTC
AUTO Bulletin édité par un automate
33024KT vent du 330°, 24 noeuds
9999 visibilité horizontale supérieure à 10 Km
FEW014 nuages rares (1/8 à 2/8) à 1400 pieds
16/M00 température 16°C, point de rosée 00°C
 soit une humidité relative de 34%
Q1017 la pression au niveau de la mer (QNH) est de 1017 hPa
BECMG fluctuation du temps prévue
32010KT vent du 320°, 10 noeuds